KCVO/CVO METAR and TAF weather

Enter ICAO airport designator
Station Type Date Time Source
KCVO METAR 2020/11/27 13:31 UTC NOAA

KCVO 271331Z AUTO 00000KT 1SM BR OVC003 01/01 A3037 RMK AO2 VIS 1/2V4 FZRANO RVRNO


Station Type Date Time Source
KCVO Decoded METAR 2020/11/27 13:31 UTC NOAA

Corvallis, Corvallis Municipal Airport, OR, United States (KCVO) 44-30N 123-17W
Nov 27, 2020 - 08:31 AM EST / 2020.11.27 1331 UTC
Wind: Calm:0
Visibility: 1 mile(s):0
Sky conditions: overcast
Weather: mist
Temperature: 33 F (1 C)
Dew Point: 33 F (1 C)
Relative Humidity: 100%
Pressure (altimeter): 30.37 in. Hg (1028 hPa)
ob: KCVO 271331Z AUTO 00000KT 1SM BR OVC003 01/01 A3037 RMK AO2 VIS 1/2V4 FZRANO RVRNO
cycle: 13

Station Type Date Time Source
KCVO TAF UTC NOAA

Error!

Example: see airport list